Nearby METAR Reports

 

EBAW - Antwerpen, Belgium
Distance from station: NW 22km
Updated: 2020-04-06 13:50
Clear
Clear
 Wind from SW
Wind: SW 17 km/h
Temperature: 20°C
Dew Point: 2°C
Humidity: 30%
Barometer: 1019 hPa
Summary: Clear
Visibility: greater than 10 km
2020/04/06 11:50 EBAW 061150Z 22009KT 180V270 CAVOK 20/02 Q1019 NOSIG
EBBR - Brussel, Belgium
Distance from station: SW 24km
Updated: 2020-04-06 13:50
Clear
Clear
 Wind from S
Wind: S 20 km/h
Temperature: 21°C
Dew Point: 3°C
Humidity: 31%
Barometer: 1019 hPa
Summary: Clear
Visibility: greater than 10 km
2020/04/06 11:50 EBBR 061150Z 19011KT CAVOK 21/03 Q1019 NOSIG
 
EBDT - Schaffen, Belgium
Distance from station: ESE 26km
Updated: 2020-04-06 13:55
Clear
Clear
 Wind from SSW
Wind: SSW 19 km/h
Temperature: 21°C
Dew Point: 3°C
Humidity: 31%
Barometer: 1019 hPa
Clouds: Clear
Visibility: 10 km
2020/04/06 11:55 EBDT 061155Z AUTO 20010KT 9999 NCD 21/03 Q1019 BLU
EBBE - Beauvechain, Belgium
Distance from station: S 36km
Updated: 2020-04-06 13:55
Few Clouds
Few Clouds
 Wind from SW
Wind: SW 24 km/h
Temperature: 20°C
Dew Point: 3°C
Humidity: 33%
Barometer: 1019 hPa
Clouds: Few Clouds
Visibility: 10 km
Cloud details: Few Clouds 5486 m
2020/04/06 11:55 EBBE 061155Z 22013KT 9999 FEW180 20/03 Q1019 BLU BLU
 
EHWO - Woensdrecht Rnla, Netherlands
Distance from station: NNW 50km
Updated: 2020-04-06 13:55
Partly cloudy
Partly cloudy
 Wind from SSW
Wind: SSW 17 km/h
Temperature: 20°C
Dew Point: 4°C
Humidity: 35%
Barometer: 1018 hPa
Clouds: Partly cloudy
Visibility: 10 km
Cloud details: Partly cloudy 2804 m
2020/04/06 11:55 EHWO 061155Z AUTO 20009KT 170V250 9999 SCT092 20/04 Q1018 BLU NOSIG
EBBL - Kleine-Brogel, Belgium
Distance from station: ENE 54km
Updated: 2020-04-06 13:55
Clear
Clear
 Wind from SSW
Wind: SSW 17 km/h
Temperature: 22°C
Dew Point: 2°C
Humidity: 27%
Barometer: 1019 hPa
Clouds: Clear
Visibility: 10 km
2020/04/06 11:55 EBBL 061155Z AUTO 20009KT 9999 NCD 22/02 Q1019 BLU
 
EHGR - Gilze-Rijen Rnla, Netherlands
Distance from station: NNE 57km
Updated: 2020-04-06 13:55
Clear
Clear
 Wind from varies
Wind: varies 20 km/h
Temperature: 22°C
Dew Point: 5°C
Humidity: 33%
Barometer: 1018 hPa
Clouds: Clear
Visibility: 10 km
2020/04/06 11:55 EHGR 061155Z AUTO VRB11KT 9999 NCD 22/05 Q1018 BLU 18010KT CAVOK
EHEH - Eindhoven Rnlafb, Netherlands
Distance from station: NE 63km
Updated: 2020-04-06 13:55
Clear
Clear
 Wind from S
Wind: S 17 km/h
Temperature: 23°C
Dew Point: 4°C
Humidity: 29%
Barometer: 1018 hPa
Clouds: Clear
Visibility: 10 km
2020/04/06 11:55 EHEH 061155Z AUTO 18009KT 150V220 9999 NCD 23/04 Q1018 BLU 20010KT CAVOK
 
EBCI - Charleroi, Belgium
Distance from station: SSW 70km
Updated: 2020-04-06 13:50
Clear
Clear
 Wind from SSW
Wind: SSW 19 km/h
Temperature: 19°C
Dew Point: 2°C
Humidity: 32%
Barometer: 1020 hPa
Summary: Clear
Visibility: greater than 10 km
2020/04/06 11:50 EBCI 061150Z 21010KT 180V250 CAVOK 19/02 Q1020 NOSIG
EBLG - Bierset, Belgium
Distance from station: SE 72km
Updated: 2020-04-06 13:50
Clear
Clear
 Wind from SSW
Wind: SSW 24 km/h
Temperature: 21°C
Dew Point: 2°C
Humidity: 29%
Barometer: 1020 hPa
Summary: Clear
Visibility: greater than 10 km
2020/04/06 11:50 EBLG 061150Z 21013KT CAVOK 21/02 Q1020 NOSIG